Terminal Aerodrome Forecast
Issued by NWS Omaha/Valley, NE

Home | Current Version | Previous Version | Graphics & Text | Print | Product List | Glossary On
Versions: 1 2 3 4 5 6 7 8 9 10 11 12 13 14 15 16 17 18 19 20 21 22 23 24 25 26 27 28 29 30 31 32 33 34 35 36
658
FTUS43 KOAX 242320
TAFOFK
TAF
KOFK 242320Z 2500/2524 34011KT P6SM VCSH OVC015
     FM250100 35011KT 6SM -SHRA OVC020
     FM251000 36010KT 6SM -RA OVC035 PROB30 2510/2512 4SM -RA OVC025
     FM251200 36009KT P6SM OVC050
     FM252100 01004KT P6SM FEW150=

USA.gov is the U.S. government's official web portal to all federal, state and local government web resources and services.